Terminal Aerodrome Forecast
Issued by NWS

Home | Current Version | Previous Version | Text Only | Print | Product List | Glossary On
Versions: 1 2 3 4 5 6 7 8 9 10 11 12 13 14 15 16 17 18 19 20 21 22 23 24 25 26 27 28
623
FTUS41 KBTV 290034 AAA
TAFPBG
TAF AMD
KPBG 290034Z 2901/2924 VRB04KT P6SM VCSH SCT010 BKN070
      TEMPO 2901/2904 2SM BR BKN005
     FM290700 VRB03KT 5SM BR SCT015 BKN035
     FM291100 VRB03KT P6SM BKN040
     FM291600 11005KT P6SM VCSH BKN040
     FM292100 32004KT P6SM SCT060=

USA.gov is the U.S. government's official web portal to all federal, state and local government web resources and services.